createdAt,value
2019-03-21T00:01:02.062Z,66.82
2019-03-21T00:03:37.175Z,65.15
2019-03-21T00:06:13.589Z,65.92
2019-03-21T00:08:48.504Z,76.77
2019-03-21T00:12:17.298Z,70.72
2019-03-21T00:15:17.109Z,66.12
2019-03-21T00:17:57.550Z,76.82
2019-03-21T00:20:32.556Z,73.65
2019-03-21T00:23:07.709Z,66.50
2019-03-21T00:25:41.710Z,74.20
2019-03-21T00:28:16.416Z,70.75
2019-03-21T00:30:51.422Z,66.92
2019-03-21T00:33:25.059Z,67.05
2019-03-21T00:35:59.950Z,64.58
2019-03-21T00:38:35.070Z,70.22
2019-03-21T00:41:10.824Z,69.12
2019-03-21T00:43:45.754Z,66.60
2019-03-21T00:46:21.454Z,65.62
2019-03-21T00:48:56.710Z,65.83
2019-03-21T00:51:31.631Z,61.33
2019-03-21T00:54:06.928Z,65.87
2019-03-21T00:56:41.838Z,58.42
2019-03-21T00:59:17.112Z,69.22
2019-03-21T01:01:51.472Z,62.00
2019-03-21T01:04:28.731Z,60.88
2019-03-21T01:07:04.945Z,76.80
2019-03-21T01:09:40.018Z,76.45
2019-03-21T01:12:15.787Z,70.40
2019-03-21T01:14:50.599Z,77.78
2019-03-21T01:17:25.354Z,82.02
2019-03-21T01:20:00.889Z,78.02
2019-03-21T01:22:35.566Z,63.17
2019-03-21T01:25:12.200Z,68.33
2019-03-21T01:27:46.843Z,74.35
2019-03-21T01:30:23.062Z,68.72
2019-03-21T01:32:57.145Z,72.90
2019-03-21T01:35:32.392Z,68.67
2019-03-21T01:38:08.058Z,76.53
2019-03-21T01:40:43.430Z,70.50
2019-03-21T01:43:18.020Z,70.67
2019-03-21T01:45:52.349Z,63.33
2019-03-21T01:48:27.496Z,72.37
2019-03-21T01:51:02.304Z,63.92
2019-03-21T01:53:37.483Z,70.12
2019-03-21T01:56:12.396Z,73.42
2019-03-21T01:58:47.040Z,72.27
2019-03-21T02:01:21.719Z,64.25
2019-03-21T02:03:57.081Z,73.00
2019-03-21T02:06:32.763Z,67.05
2019-03-21T02:09:10.316Z,66.28
2019-03-21T02:11:45.501Z,64.30
2019-03-21T02:14:21.330Z,81.95
2019-03-21T02:16:56.676Z,68.22
2019-03-21T02:19:32.220Z,68.25
2019-03-21T02:22:07.180Z,70.15
2019-03-21T02:24:41.650Z,72.40
2019-03-21T02:27:16.557Z,72.03
2019-03-21T02:29:52.028Z,66.33
2019-03-21T02:32:27.061Z,62.23
2019-03-21T02:35:01.946Z,64.27
2019-03-21T02:37:36.987Z,63.98
2019-03-21T02:40:14.855Z,73.90
2019-03-21T02:42:50.122Z,77.70
2019-03-21T02:45:25.769Z,68.67
2019-03-21T02:48:00.935Z,73.35
2019-03-21T02:50:36.327Z,63.02
2019-03-21T02:53:10.544Z,68.50
2019-03-21T02:55:45.280Z,70.72
2019-03-21T02:58:20.303Z,75.15
2019-03-21T03:00:55.353Z,69.37
2019-03-21T03:03:30.483Z,68.78
2019-03-21T03:06:05.114Z,71.00
2019-03-21T03:08:39.991Z,65.85
2019-03-21T03:11:13.850Z,71.65
2019-03-21T03:13:49.316Z,74.22
2019-03-21T03:16:23.900Z,69.77
2019-03-21T03:18:58.422Z,65.75
2019-03-21T03:21:33.473Z,64.03
2019-03-21T03:24:09.032Z,67.87
2019-03-21T03:26:43.603Z,67.47
2019-03-21T03:29:19.001Z,60.45
2019-03-21T03:31:54.263Z,61.15
2019-03-21T03:34:29.757Z,68.37
2019-03-21T03:37:04.836Z,66.85
2019-03-21T03:39:38.924Z,63.10
2019-03-21T03:42:13.088Z,58.35
2019-03-21T03:44:47.571Z,60.90
2019-03-21T03:47:23.282Z,60.28
2019-03-21T03:49:58.639Z,68.90
2019-03-21T03:52:33.777Z,62.08
2019-03-21T03:55:08.307Z,61.60
2019-03-21T03:57:43.263Z,56.10
2019-03-21T04:00:21.025Z,56.48
2019-03-21T04:02:56.291Z,69.20
2019-03-21T04:05:31.196Z,69.60
2019-03-21T04:08:06.127Z,63.50
2019-03-21T04:10:42.940Z,63.70
2019-03-21T04:13:17.009Z,64.62
2019-03-21T04:15:53.786Z,73.72
2019-03-21T04:18:28.029Z,77.35
2019-03-21T04:21:02.670Z,76.02
2019-03-21T04:23:37.898Z,74.97
2019-03-21T04:26:18.625Z,68.33
2019-03-21T04:28:52.872Z,61.10
2019-03-21T04:31:27.190Z,58.60
2019-03-21T04:34:03.782Z,62.17
2019-03-21T04:36:37.976Z,58.60
2019-03-21T04:39:13.357Z,61.60
2019-03-21T04:41:47.733Z,58.28
2019-03-21T04:44:22.345Z,61.85
2019-03-21T04:46:56.679Z,56.70
2019-03-21T04:49:31.720Z,61.88
2019-03-21T04:52:06.855Z,56.63
2019-03-21T04:54:39.891Z,50.15
2019-03-21T04:57:16.048Z,56.10
2019-03-21T04:59:51.574Z,56.00
2019-03-21T05:02:27.282Z,46.95
2019-03-21T05:05:01.924Z,51.63
2019-03-21T05:07:36.606Z,50.35
2019-03-21T05:10:12.436Z,54.45
2019-03-21T05:12:47.903Z,52.70
2019-03-21T05:15:25.673Z,62.95
2019-03-21T05:18:03.271Z,66.65
2019-03-21T05:20:38.309Z,71.55
2019-03-21T05:23:13.233Z,76.45
2019-03-21T05:25:48.553Z,84.72
2019-03-21T05:28:23.605Z,88.15
2019-03-21T05:31:01.705Z,65.10
2019-03-21T05:33:36.760Z,56.85
2019-03-21T05:36:11.413Z,51.42
2019-03-21T05:38:46.524Z,45.52
2019-03-21T05:41:21.146Z,50.90
2019-03-21T05:44:00.564Z,60.63
2019-03-21T05:46:34.782Z,54.63
2019-03-21T05:49:10.069Z,59.73
2019-03-21T05:51:44.670Z,54.10
2019-03-21T05:54:19.706Z,52.73
2019-03-21T05:56:54.043Z,49.70
2019-03-21T05:59:29.689Z,46.77
2019-03-21T06:02:03.922Z,44.30
2019-03-21T06:04:38.700Z,47.85
2019-03-21T06:07:46.199Z,42.93
2019-03-21T06:10:20.738Z,44.98
2019-03-21T06:12:55.291Z,41.55
2019-03-21T06:15:31.879Z,40.63
2019-03-21T06:19:07.494Z,40.05
2019-03-21T06:22:48.569Z,41.90
2019-03-21T06:26:07.646Z,40.20
2019-03-21T06:28:41.121Z,50.70
2019-03-21T06:31:16.258Z,42.08
2019-03-21T06:33:51.009Z,37.53
2019-03-21T06:36:24.998Z,47.93
2019-03-21T06:39:00.475Z,41.48
2019-03-21T06:41:35.119Z,42.43
2019-03-21T06:44:10.216Z,48.00
2019-03-21T06:46:49.664Z,46.73
2019-03-21T06:49:22.013Z,46.33
2019-03-21T06:51:57.336Z,44.90
2019-03-21T06:54:31.916Z,50.52
2019-03-21T06:57:06.219Z,40.43
2019-03-21T06:59:41.019Z,42.53
2019-03-21T07:02:15.575Z,39.25
2019-03-21T07:04:50.283Z,43.40
2019-03-21T07:07:25.337Z,42.45
2019-03-21T07:09:59.744Z,40.70
2019-03-21T07:12:34.332Z,43.50
2019-03-21T07:15:09.492Z,45.25
2019-03-21T07:17:43.618Z,40.75
2019-03-21T07:20:18.283Z,41.40
2019-03-21T07:22:52.050Z,39.65
2019-03-21T07:25:25.361Z,39.30
2019-03-21T07:27:58.782Z,36.93
2019-03-21T07:30:32.167Z,40.65
2019-03-21T07:33:09.249Z,40.50
2019-03-21T07:35:44.053Z,39.75
2019-03-21T07:38:18.880Z,40.48
2019-03-21T07:40:52.825Z,44.95
2019-03-21T07:43:27.109Z,35.30
2019-03-21T07:46:01.300Z,44.77
2019-03-21T07:48:35.872Z,41.18
2019-03-21T07:51:10.550Z,40.92
2019-03-21T07:53:44.329Z,39.48
2019-03-21T07:56:18.455Z,50.92
2019-03-21T07:58:53.522Z,45.60
2019-03-21T08:01:30.369Z,42.33
2019-03-21T08:04:04.537Z,40.70
2019-03-21T08:06:38.994Z,44.00
2019-03-21T08:09:13.211Z,38.48
2019-03-21T08:11:47.239Z,50.45
2019-03-21T08:14:20.553Z,41.23
2019-03-21T08:16:54.393Z,46.23
2019-03-21T08:19:27.979Z,44.55
2019-03-21T08:22:00.825Z,44.27
2019-03-21T08:24:34.066Z,40.12
2019-03-21T08:27:08.527Z,38.15
2019-03-21T08:29:42.097Z,40.78
2019-03-21T08:32:15.779Z,41.95
2019-03-21T08:34:49.891Z,37.70
2019-03-21T08:37:24.519Z,43.73
2019-03-21T08:39:59.346Z,41.55
2019-03-21T08:42:32.758Z,44.65
2019-03-21T08:45:07.102Z,36.33
2019-03-21T08:47:41.524Z,36.98
2019-03-21T08:50:15.447Z,42.80
2019-03-21T08:52:49.717Z,38.30
2019-03-21T08:55:23.055Z,38.73
2019-03-21T08:57:56.937Z,36.98
2019-03-21T09:00:34.490Z,34.30
2019-03-21T09:03:06.985Z,35.15
2019-03-21T09:05:40.775Z,36.20
2019-03-21T09:08:14.788Z,41.75
2019-03-21T09:10:48.832Z,43.75
2019-03-21T09:13:22.835Z,37.03
2019-03-21T09:15:57.475Z,41.10
2019-03-21T09:18:30.944Z,33.45
2019-03-21T09:21:03.686Z,33.25
2019-03-21T09:23:36.961Z,37.25
2019-03-21T09:26:10.762Z,36.10
2019-03-21T09:28:44.622Z,38.80
2019-03-21T09:31:17.509Z,37.73
2019-03-21T09:33:52.825Z,41.48
2019-03-21T09:36:27.866Z,38.70
2019-03-21T09:39:00.611Z,35.60
2019-03-21T09:41:34.266Z,37.93
2019-03-21T09:44:07.023Z,33.80
2019-03-21T09:46:50.451Z,42.45
2019-03-21T09:49:15.103Z,41.23
2019-03-21T09:51:49.156Z,38.17
2019-03-21T09:54:23.732Z,37.78
2019-03-21T09:56:57.968Z,43.00
2019-03-21T09:59:32.310Z,41.28
2019-03-21T10:02:07.203Z,38.67
2019-03-21T10:04:40.421Z,35.83
2019-03-21T10:07:14.467Z,38.58
2019-03-21T10:09:48.304Z,37.55
2019-03-21T10:12:23.632Z,35.63
2019-03-21T10:14:57.482Z,41.23
2019-03-21T10:17:30.775Z,39.90
2019-03-21T10:20:04.143Z,37.10
2019-03-21T10:22:38.169Z,40.35
2019-03-21T10:25:11.391Z,37.67
2019-03-21T10:27:46.447Z,44.38
2019-03-21T10:30:43.272Z,36.33
2019-03-21T10:33:18.771Z,35.73
2019-03-21T10:35:53.205Z,38.73
2019-03-21T10:38:28.714Z,35.58
2019-03-21T10:41:02.492Z,32.13
2019-03-21T10:43:36.895Z,34.13
2019-03-21T10:46:09.780Z,40.28
2019-03-21T10:48:43.609Z,36.73
2019-03-21T10:51:16.489Z,39.85
2019-03-21T10:53:49.916Z,36.20
2019-03-21T10:56:23.573Z,36.53
2019-03-21T10:58:57.433Z,43.92
2019-03-21T11:01:32.234Z,34.55
2019-03-21T11:04:05.535Z,28.62
2019-03-21T11:06:38.701Z,34.30
2019-03-21T11:09:14.189Z,26.93
2019-03-21T11:11:48.874Z,32.88
2019-03-21T11:14:22.105Z,30.70
2019-03-21T11:16:55.776Z,32.35
2019-03-21T11:19:29.456Z,29.40
2019-03-21T11:22:06.544Z,30.82
2019-03-21T11:24:40.871Z,33.42
2019-03-21T11:27:14.451Z,28.00
2019-03-21T11:29:47.279Z,27.98
2019-03-21T11:32:22.469Z,28.60
2019-03-21T11:34:56.442Z,27.22
2019-03-21T11:37:31.137Z,27.67
2019-03-21T11:40:05.958Z,26.20
2019-03-21T11:42:40.537Z,25.05
2019-03-21T11:45:15.514Z,26.25
2019-03-21T11:47:50.475Z,25.85
2019-03-21T11:50:25.692Z,27.87
2019-03-21T11:52:59.396Z,26.82
2019-03-21T11:55:33.325Z,25.17
2019-03-21T11:58:08.047Z,24.30
2019-03-21T12:00:44.999Z,25.85
2019-03-21T12:03:19.427Z,23.38
2019-03-21T12:05:54.003Z,25.70
2019-03-21T12:08:28.557Z,24.57
2019-03-21T12:11:04.139Z,22.37
2019-03-21T12:13:39.286Z,23.83
2019-03-21T12:16:13.892Z,26.37
2019-03-21T12:18:48.858Z,27.98
2019-03-21T12:21:23.767Z,34.03
2019-03-21T12:23:58.327Z,30.37
2019-03-21T12:26:33.399Z,26.77
2019-03-21T12:29:08.484Z,36.13
2019-03-21T12:31:43.070Z,26.45
2019-03-21T12:34:18.229Z,21.50
2019-03-21T12:36:52.543Z,20.40
2019-03-21T12:39:28.965Z,22.93
2019-03-21T12:42:03.504Z,16.45
2019-03-21T12:44:37.618Z,23.77
2019-03-21T12:47:13.505Z,25.05
2019-03-21T12:49:47.922Z,20.95
2019-03-21T12:52:22.577Z,21.65
2019-03-21T12:54:57.174Z,22.20
2019-03-21T12:57:32.103Z,21.05
2019-03-21T13:00:07.881Z,23.07
2019-03-21T13:02:43.274Z,23.85
2019-03-21T13:05:28.515Z,16.52
2019-03-21T13:08:02.517Z,19.80
2019-03-21T13:10:36.881Z,22.77
2019-03-21T13:13:10.648Z,17.55
2019-03-21T13:15:43.904Z,15.95
2019-03-21T13:18:17.078Z,18.75
2019-03-21T13:20:50.973Z,21.50
2019-03-21T13:23:25.475Z,22.37
2019-03-21T13:25:59.251Z,16.48
2019-03-21T13:28:32.855Z,17.23
2019-03-21T13:31:07.363Z,25.12
2019-03-21T13:33:40.691Z,17.50
2019-03-21T13:36:13.799Z,15.98
2019-03-21T13:38:48.099Z,17.73
2019-03-21T13:41:21.826Z,20.65
2019-03-21T13:43:55.986Z,19.05
2019-03-21T13:46:29.980Z,20.65
2019-03-21T13:49:03.117Z,17.20
2019-03-21T13:51:38.851Z,15.45
2019-03-21T13:54:12.719Z,16.67
2019-03-21T13:56:46.960Z,13.28
2019-03-21T13:59:21.062Z,19.52
2019-03-21T14:01:54.731Z,21.12
2019-03-21T14:04:29.159Z,19.60
2019-03-21T14:07:04.044Z,16.65
2019-03-21T14:09:38.490Z,19.32
2019-03-21T14:12:12.952Z,24.07
2019-03-21T14:14:46.273Z,18.12
2019-03-21T14:17:22.280Z,14.13
2019-03-21T14:19:55.717Z,14.68
2019-03-21T14:22:29.406Z,13.95
2019-03-21T14:25:03.908Z,15.88
2019-03-21T14:27:36.714Z,17.05
2019-03-21T14:30:10.536Z,15.75
2019-03-21T14:32:45.494Z,14.70
2019-03-21T14:35:20.544Z,16.10
2019-03-21T14:37:54.240Z,18.67
2019-03-21T14:40:27.511Z,17.42
2019-03-21T14:43:03.228Z,17.90
2019-03-21T14:45:36.845Z,19.05
2019-03-21T14:48:10.570Z,21.85
2019-03-21T14:50:43.830Z,19.62
2019-03-21T14:53:28.276Z,20.50
2019-03-21T14:55:54.973Z,21.55
2019-03-21T14:58:29.913Z,22.98
2019-03-21T15:01:04.715Z,21.68
2019-03-21T15:03:37.585Z,19.42
2019-03-21T15:06:13.525Z,21.33
2019-03-21T15:08:48.000Z,25.55
2019-03-21T15:11:22.687Z,22.58
2019-03-21T15:13:58.074Z,22.25
2019-03-21T15:16:32.861Z,21.10
2019-03-21T15:19:07.868Z,27.00
2019-03-21T15:21:41.602Z,21.15
2019-03-21T15:24:14.365Z,22.75
2019-03-21T15:26:47.136Z,22.42
2019-03-21T15:29:20.604Z,25.88
2019-03-21T15:31:55.469Z,27.40
2019-03-21T15:34:28.457Z,22.48
2019-03-21T15:37:02.103Z,26.25
2019-03-21T15:39:35.454Z,25.02
2019-03-21T15:42:08.695Z,23.05
2019-03-21T15:44:41.877Z,24.57
2019-03-21T15:47:16.254Z,24.72
2019-03-21T15:49:51.447Z,26.57
2019-03-21T15:52:25.393Z,25.27
2019-03-21T15:54:59.493Z,26.02
2019-03-21T15:57:33.299Z,24.18
2019-03-21T16:00:07.403Z,22.95
2019-03-21T16:02:41.422Z,24.15
2019-03-21T16:05:14.828Z,32.93
2019-03-21T16:07:49.952Z,30.52
2019-03-21T16:10:25.479Z,31.35
2019-03-21T16:13:00.500Z,36.25
2019-03-21T16:15:36.162Z,34.40
2019-03-21T16:18:10.899Z,29.80
2019-03-21T16:20:46.124Z,30.35
2019-03-21T16:23:20.136Z,29.77
2019-03-21T16:25:55.062Z,33.75
2019-03-21T16:28:29.984Z,29.05
2019-03-21T16:31:04.943Z,31.95
2019-03-21T16:33:39.489Z,34.73
2019-03-21T16:36:14.595Z,28.67
2019-03-21T16:38:49.739Z,27.52
2019-03-21T16:41:23.674Z,28.90
2019-03-21T16:43:56.430Z,25.62
2019-03-21T16:46:30.262Z,27.20
2019-03-21T16:49:04.229Z,28.42
2019-03-21T16:51:39.863Z,30.65
2019-03-21T16:54:20.751Z,27.93
2019-03-21T16:56:55.855Z,24.45
2019-03-21T16:59:29.154Z,26.55
2019-03-21T17:02:02.905Z,26.07
2019-03-21T17:04:36.104Z,31.00
2019-03-21T17:07:08.815Z,36.35
2019-03-21T17:09:43.234Z,40.17
2019-03-21T17:12:17.840Z,46.23
2019-03-21T17:14:52.674Z,42.98
2019-03-21T17:17:26.854Z,43.90
2019-03-21T17:20:01.496Z,39.60
2019-03-21T17:22:35.341Z,53.20
2019-03-21T17:25:09.351Z,46.95
2019-03-21T17:27:46.317Z,46.50
2019-03-21T17:30:20.940Z,44.08
2019-03-21T17:32:56.553Z,47.08
2019-03-21T17:35:29.943Z,43.70
2019-03-21T17:38:03.350Z,92.08
2019-03-21T17:40:38.158Z,98.33
2019-03-21T17:43:12.493Z,110.42
2019-03-21T17:45:45.282Z,96.82
2019-03-21T17:48:19.178Z,81.78
2019-03-21T17:50:53.210Z,63.10
2019-03-21T17:53:26.499Z,51.73
2019-03-21T17:56:01.530Z,48.95
2019-03-21T17:58:36.599Z,48.58
2019-03-21T18:01:10.738Z,42.65
2019-03-21T18:03:45.495Z,45.35
2019-03-21T18:06:19.559Z,45.83
2019-03-21T18:08:54.244Z,42.70
2019-03-21T18:11:28.649Z,36.13
2019-03-21T18:14:03.234Z,42.45
2019-03-21T18:16:38.058Z,42.23
2019-03-21T18:19:12.972Z,46.18
2019-03-21T18:21:47.450Z,46.37
2019-03-21T18:24:22.403Z,47.43
2019-03-21T18:26:56.298Z,40.35
2019-03-21T18:29:30.313Z,46.18
2019-03-21T18:32:03.112Z,53.95
2019-03-21T18:34:36.459Z,64.12
2019-03-21T18:37:10.406Z,73.45
2019-03-21T18:39:43.493Z,77.90
2019-03-21T18:42:22.026Z,72.97
2019-03-21T18:44:54.790Z,78.65
2019-03-21T18:47:29.949Z,73.30
2019-03-21T18:50:04.143Z,80.53
2019-03-21T18:52:38.099Z,72.62
2019-03-21T18:55:12.192Z,66.90
2019-03-21T18:57:45.559Z,64.17
2019-03-21T19:00:19.354Z,56.65
2019-03-21T19:02:52.234Z,64.17
2019-03-21T19:05:26.795Z,58.45
2019-03-21T19:08:00.138Z,64.00
2019-03-21T19:10:34.121Z,60.48
2019-03-21T19:13:09.175Z,71.77
2019-03-21T19:15:42.445Z,75.10
2019-03-21T19:18:16.024Z,87.08
2019-03-21T19:20:50.445Z,80.55
2019-03-21T19:23:25.074Z,77.20
2019-03-21T19:25:59.403Z,74.32
2019-03-21T19:28:33.307Z,61.55
2019-03-21T19:31:07.062Z,58.63
2019-03-21T19:33:40.539Z,59.48
2019-03-21T19:36:14.802Z,55.28
2019-03-21T19:38:49.246Z,61.33
2019-03-21T19:41:22.595Z,75.05
2019-03-21T19:43:56.267Z,69.27
2019-03-21T19:46:30.299Z,64.35
2019-03-21T19:49:06.656Z,87.88
2019-03-21T19:51:48.244Z,83.67
2019-03-21T19:54:27.819Z,94.25
2019-03-21T19:57:09.443Z,97.47
2019-03-21T19:59:43.769Z,88.58
2019-03-21T20:02:19.921Z,99.00
2019-03-21T20:04:56.029Z,106.85
2019-03-21T20:07:32.853Z,122.02
2019-03-21T20:10:07.823Z,121.30
2019-03-21T20:12:42.110Z,138.72
2019-03-21T20:15:15.973Z,120.30
2019-03-21T20:17:49.974Z,110.55
2019-03-21T20:20:26.142Z,90.20
2019-03-21T20:23:02.028Z,94.17
2019-03-21T20:25:42.687Z,94.37
2019-03-21T20:28:11.589Z,99.13
2019-03-21T20:30:44.825Z,99.42
2019-03-21T20:33:19.791Z,98.27
2019-03-21T20:35:53.134Z,101.10
2019-03-21T20:38:27.881Z,103.02
2019-03-21T20:41:03.476Z,112.80
2019-03-21T20:43:37.495Z,104.95
2019-03-21T20:46:12.367Z,97.12
2019-03-21T20:48:41.818Z,117.57
2019-03-21T20:51:15.533Z,121.47
2019-03-21T20:53:49.993Z,125.62
2019-03-21T20:56:23.379Z,121.50
2019-03-21T20:58:56.618Z,148.00
2019-03-21T21:01:30.651Z,123.07
2019-03-21T21:04:03.798Z,96.25
2019-03-21T21:06:37.120Z,88.25
2019-03-21T21:09:12.349Z,85.05
2019-03-21T21:11:47.476Z,81.10
2019-03-21T21:14:22.424Z,66.00
2019-03-21T21:16:58.084Z,68.45
2019-03-21T21:19:32.125Z,70.90
2019-03-21T21:22:07.303Z,60.73
2019-03-21T21:24:40.164Z,60.52
2019-03-21T21:27:13.542Z,59.95
2019-03-21T21:29:46.890Z,58.95
2019-03-21T21:32:22.067Z,57.10
2019-03-21T21:34:56.985Z,59.53
2019-03-21T21:37:30.806Z,59.23
2019-03-21T21:40:04.488Z,61.10
2019-03-21T21:42:38.492Z,61.08
2019-03-21T21:45:13.351Z,61.80
2019-03-21T21:48:11.984Z,56.55
2019-03-21T21:50:55.018Z,56.70
2019-03-21T21:53:29.677Z,58.15
2019-03-21T21:56:04.288Z,59.20
2019-03-21T21:58:38.877Z,57.65
2019-03-21T22:01:13.980Z,59.63
2019-03-21T22:03:49.078Z,58.05
2019-03-21T22:06:24.095Z,60.67
2019-03-21T22:08:58.831Z,63.68
2019-03-21T22:11:33.611Z,65.12
2019-03-21T22:14:09.004Z,68.40
2019-03-21T22:16:44.032Z,71.82
2019-03-21T22:19:18.518Z,68.20
2019-03-21T22:21:53.500Z,63.83
2019-03-21T22:24:28.545Z,68.05
2019-03-21T22:27:02.714Z,65.87
2019-03-21T22:29:37.308Z,72.55
2019-03-21T22:32:11.535Z,70.57
2019-03-21T22:34:46.592Z,70.78
2019-03-21T22:37:21.771Z,70.10
2019-03-21T22:39:56.904Z,70.00
2019-03-21T22:42:32.044Z,68.70
2019-03-21T22:45:07.770Z,74.00
2019-03-21T22:47:43.137Z,75.80
2019-03-21T22:50:17.560Z,70.70
2019-03-21T22:52:51.775Z,69.53
2019-03-21T22:55:27.121Z,74.90
2019-03-21T22:58:02.833Z,76.95
2019-03-21T23:00:45.257Z,76.85
2019-03-21T23:03:20.086Z,78.78
2019-03-21T23:05:55.233Z,80.65
2019-03-21T23:08:30.258Z,76.12
2019-03-21T23:11:04.992Z,77.00
2019-03-21T23:13:39.929Z,71.67
2019-03-21T23:16:14.958Z,75.80
2019-03-21T23:18:49.701Z,79.70
2019-03-21T23:21:24.728Z,76.75
2019-03-21T23:23:59.385Z,77.53
2019-03-21T23:26:34.365Z,76.17
2019-03-21T23:29:09.546Z,77.60
2019-03-21T23:31:44.551Z,77.85
2019-03-21T23:34:19.432Z,77.05
2019-03-21T23:36:54.423Z,80.80
2019-03-21T23:39:29.112Z,78.97
2019-03-21T23:42:04.110Z,77.37
2019-03-21T23:44:38.882Z,83.12
2019-03-21T23:47:13.539Z,81.05
2019-03-21T23:49:48.477Z,78.80
2019-03-21T23:52:23.711Z,81.87
2019-03-21T23:54:58.756Z,76.17
2019-03-21T23:57:34.522Z,82.90
